Aérodrome :
LOGIN :

S'inscrire | Disclaimer

   EN    FR    IT 

 










Légende :    VFR   VFR Marginal   IFR   IFR Intensif   IFR Très Intensif
Visi : 
Plafond : 
>= 8 km
>= 3000ft
5 à 8 km
1000 à 3000 ft
1500m à 5 km
500 à 1000 ft
800 à 1500m
200 à 500 ft
< 800m
< 200 ft
Symboles :   Orages  Brouillard  Fortes neiges  Fortes précipitations  Vent > 20 kt
SIGMETs :   Divers  Orages  Givrage  Turbulence  Onde Orograph.  Cendres Volcan.






- Altitude de l'aérodrome : 939 ft


LKKB - Kbely Air Base

DERNIER METAR :
  • 151700Z 07005KT 9999 FEW023 BKN200 08/06 Q1004 NOSIG

METARs EXPIRÉS :
  • 151600Z 09006KT 050V110 9999 SCT022 BKN025 09/06 Q1004 NOSIG
  • 151500Z 12011KT 9999 FEW030 BKN090 BKN240 10/06 Q1003 NOSIG

TAF TAF LKKB
Valide du 15 à 12h jusqu'au 16 à 12h UTC


151100Z 1512/1612 08010KT 9999 SCT025
TEMPO 1512/1518 11012G24KT SCT030
BECMG 1518/1520 13010KT
BECMG 1522/1600 18012KT BKN025
TEMPO 1600/1606 6000 RA SCT015 OVC025



MET'MAP, la Météo Aéronautique d'un coup d'oeil ! - Copyright ORBIFLY Décembre 2007 - Disclaimer

ORBIFLY MET'MAP TEAM :

Programmation & Développement : Alexandra Zaïnal
Conception & Développement : Baudouin d'Aumeries
Co-Programmation & Développement : Marc-Olivier Méhu
Soutien technique & logistique : Manuel Goepfert

Contact : metmap@orbifly.com




SOURCES & CREDITS :

   NOAA